Time;durP1;ratioP1;P1;durP2;ratioP2;P2;SDS_P1;SDS_P2;PMS_P1;PMS_P2;Temp;Humidity;BMP_temperature;BMP_pressure;BME280_temperature;BME280_humidity;BME280_pressure;Samples;Min_cycle;Max_cycle;Signal;HPM_P1;HPM_P2
2022/04/18 00:02:23;;;;;;;3.65;2.40;;;3.20;54.60;;;;;;5040028;28;20030;-79
2022/04/18 00:04:49;;;;;;;3.63;1.42;;;3.20;54.70;;;;;;5034630;28;20033;-78
2022/04/18 00:07:15;;;;;;;1.75;1.25;;;3.20;54.60;;;;;;5016560;28;20022;-78
2022/04/18 00:09:41;;;;;;;7.90;1.65;;;3.20;54.50;;;;;;5026435;28;20083;-79
2022/04/18 00:12:07;;;;;;;3.40;1.65;;;3.20;54.50;;;;;;5053480;28;20017;-77
2022/04/18 00:14:33;;;;;;;3.25;1.50;;;3.20;54.70;;;;;;5054330;28;20120;-78
2022/04/18 00:17:00;;;;;;;4.75;1.63;;;3.10;54.80;;;;;;5054648;28;20036;-79
2022/04/18 00:19:26;;;;;;;5.32;2.05;;;3.10;54.70;;;;;;5054617;28;20029;-77
2022/04/18 00:21:52;;;;;;;3.60;1.38;;;3.10;55.00;;;;;;5054192;28;20100;-78
2022/04/18 00:24:20;;;;;;;4.53;2.33;;;3.10;55.00;;;;;;5054180;28;20124;-78
2022/04/18 00:26:47;;;;;;;4.25;2.17;;;3.10;54.90;;;;;;5054174;28;20017;-78
2022/04/18 00:29:12;;;;;;;2.75;1.80;;;3.10;55.00;;;;;;5053372;28;20036;-78
2022/04/18 00:31:38;;;;;;;4.18;1.98;;;3.10;54.70;;;;;;5036369;28;20040;-78
2022/04/18 00:34:05;;;;;;;4.35;1.70;;;3.20;54.80;;;;;;5054319;28;20022;-79
2022/04/18 00:36:31;;;;;;;3.13;1.52;;;3.10;54.40;;;;;;5033103;28;20025;-77
2022/04/18 00:38:57;;;;;;;3.53;2.08;;;3.10;54.50;;;;;;5054008;28;20028;-78
2022/04/18 00:41:23;;;;;;;5.43;2.08;;;3.10;54.70;;;;;;5053845;28;20033;-78
2022/04/18 00:43:49;;;;;;;9.25;2.25;;;3.10;54.80;;;;;;5068652;28;20108;-77
2022/04/18 00:46:18;;;;;;;3.90;2.10;;;3.10;55.00;;;;;;5054094;28;20084;-75
2022/04/18 00:48:44;;;;;;;5.32;1.90;;;3.00;55.00;;;;;;5062276;28;20020;-74
2022/04/18 00:51:11;;;;;;;4.35;1.70;;;3.00;55.10;;;;;;5074603;28;20432;-74
2022/04/18 00:53:39;;;;;;;3.38;2.15;;;3.00;55.30;;;;;;5056344;28;20020;-75
2022/04/18 00:56:09;;;;;;;2.65;1.35;;;3.00;55.40;;;;;;5073396;28;20062;-75
2022/04/18 00:58:36;;;;;;;2.83;1.65;;;2.90;55.40;;;;;;5042537;28;20029;-75
2022/04/18 01:01:03;;;;;;;5.28;1.35;;;2.90;55.40;;;;;;5052589;28;20752;-75
2022/04/18 01:03:30;;;;;;;2.95;1.50;;;2.90;55.50;;;;;;5053189;28;20035;-75
2022/04/18 01:05:59;;;;;;;;;;;2.90;55.70;;;;;;5053704;28;20029;-75
2022/04/18 01:08:25;;;;;;;2.60;1.70;;;2.80;55.80;;;;;;5053334;28;19916;-74
2022/04/18 01:10:53;;;;;;;4.68;1.70;;;2.80;56.10;;;;;;5053410;28;20021;-75
2022/04/18 01:13:18;;;;;;;4.25;1.42;;;2.80;56.50;;;;;;5053333;28;20028;-74
2022/04/18 01:15:44;;;;;;;3.80;2.17;;;2.70;56.60;;;;;;5053154;28;20045;-74
2022/04/18 01:18:10;;;;;;;2.80;1.58;;;2.70;56.80;;;;;;5034155;28;20029;-75
2022/04/18 01:20:36;;;;;;;3.75;1.92;;;2.70;56.90;;;;;;5053038;28;20029;-74
2022/04/18 01:23:05;;;;;;;4.63;2.13;;;2.60;57.00;;;;;;5034838;28;20025;-75
2022/04/18 01:30:59;;;;;;;3.75;1.98;;;2.50;57.40;;;;;;5052799;28;20028;-76
2022/04/18 01:33:25;;;;;;;3.10;2.10;;;2.50;57.50;;;;;;5051969;28;20442;-76
2022/04/18 01:35:51;;;;;;;4.63;2.30;;;2.40;57.70;;;;;;5052214;28;20182;-75
2022/04/18 01:38:16;;;;;;;3.55;1.63;;;2.40;57.90;;;;;;5052629;28;20496;-76
2022/04/18 01:40:42;;;;;;;6.10;2.22;;;2.30;58.10;;;;;;5052674;28;20029;-76
2022/04/18 01:43:08;;;;;;;5.50;1.70;;;2.30;58.30;;;;;;5052513;28;20025;-76
2022/04/18 01:45:37;;;;;;;2.30;1.60;;;2.30;58.40;;;;;;5052455;28;20025;-75
2022/04/18 01:48:03;;;;;;;4.43;2.03;;;2.30;58.50;;;;;;5051508;28;20025;-75
2022/04/18 01:50:29;;;;;;;4.00;2.00;;;2.30;58.70;;;;;;5052779;28;20499;-75
2022/04/18 01:52:55;;;;;;;4.30;2.00;;;2.20;58.70;;;;;;5067988;28;20044;-74
2022/04/18 01:55:21;;;;;;;2.45;1.50;;;2.30;58.80;;;;;;5072379;28;20043;-75
2022/04/18 01:57:47;;;;;;;2.65;1.92;;;2.30;58.90;;;;;;5072246;28;20050;-74
2022/04/18 02:00:12;;;;;;;2.08;1.75;;;2.30;58.60;;;;;;5072347;28;20040;-75
2022/04/18 02:02:38;;;;;;;7.70;1.95;;;2.30;58.70;;;;;;5055565;28;20478;-75
2022/04/18 02:05:07;;;;;;;3.97;2.22;;;2.30;58.90;;;;;;5045663;28;20060;-77
2022/04/18 02:07:33;;;;;;;4.55;2.08;;;2.30;59.00;;;;;;5040816;28;20095;-76
2022/04/18 02:09:59;;;;;;;4.22;1.92;;;2.30;59.10;;;;;;5031040;28;20057;-75
2022/04/18 02:12:25;;;;;;;4.28;1.98;;;2.30;59.00;;;;;;5032145;28;20021;-75
2022/04/18 02:14:51;;;;;;;2.65;1.52;;;2.20;59.20;;;;;;5032116;28;20087;-75
2022/04/18 02:17:17;;;;;;;9.38;1.73;;;2.20;59.30;;;;;;5032272;28;20494;-74
2022/04/18 02:19:44;;;;;;;4.30;2.05;;;2.20;59.40;;;;;;5030896;28;20029;-74
2022/04/18 02:22:10;;;;;;;3.10;1.90;;;2.20;59.50;;;;;;5041443;28;20021;-76
2022/04/18 02:24:36;;;;;;;2.45;1.77;;;2.20;59.60;;;;;;5052057;28;20100;-75
2022/04/18 02:27:02;;;;;;;5.00;1.88;;;2.20;59.80;;;;;;5051873;28;20025;-78
2022/04/18 02:29:28;;;;;;;5.05;2.08;;;2.10;60.00;;;;;;5052274;28;20032;-75
2022/04/18 02:34:38;;;;;;;6.53;1.95;;;2.10;60.00;;;;;;5051671;28;20067;-77
2022/04/18 02:37:04;;;;;;;4.07;2.13;;;2.10;60.10;;;;;;5050545;28;20029;-74
2022/04/18 02:39:30;;;;;;;5.00;2.05;;;2.10;60.30;;;;;;5034128;28;20037;-75
2022/04/18 02:41:57;;;;;;;7.85;2.60;;;2.10;60.60;;;;;;5051823;28;20025;-74
2022/04/18 02:44:24;;;;;;;3.08;1.80;;;2.10;60.80;;;;;;5051657;28;20036;-75
2022/04/18 02:46:49;;;;;;;3.28;1.80;;;2.10;61.60;;;;;;5051623;28;20495;-74
2022/04/18 02:49:15;;;;;;;4.30;2.00;;;2.20;60.90;;;;;;5051528;28;20029;-74
2022/04/18 02:51:41;;;;;;;7.00;2.85;;;2.20;60.90;;;;;;5033456;28;20033;-74
2022/04/18 02:54:07;;;;;;;3.63;2.30;;;2.30;60.90;;;;;;5050933;28;20040;-74
2022/04/18 02:56:33;;;;;;;4.75;2.63;;;2.30;60.90;;;;;;5051817;28;20450;-74
2022/04/18 02:58:58;;;;;;;5.07;2.00;;;2.40;61.00;;;;;;5033639;28;20025;-75
2022/04/18 03:01:24;;;;;;;2.90;1.77;;;2.40;61.10;;;;;;5051755;28;20033;-74
2022/04/18 03:03:53;;;;;;;5.40;2.50;;;2.50;61.00;;;;;;5051758;28;20475;-75
2022/04/18 03:06:18;;;;;;;3.55;2.05;;;2.50;61.00;;;;;;5051902;28;20394;-75
2022/04/18 03:08:44;;;;;;;2.83;2.00;;;2.60;61.10;;;;;;5051750;28;20025;-76
2022/04/18 03:11:10;;;;;;;3.65;2.13;;;2.70;61.10;;;;;;5050527;28;20123;-75
2022/04/18 03:13:37;;;;;;;3.63;2.25;;;2.70;61.70;;;;;;5050771;28;20040;-75
2022/04/18 03:16:05;;;;;;;7.93;2.25;;;2.80;61.00;;;;;;5055116;28;20461;-76
2022/04/18 03:18:31;;;;;;;5.95;2.80;;;2.90;61.00;;;;;;5055214;28;20108;-76
2022/04/18 03:20:57;;;;;;;8.52;2.63;;;3.00;61.00;;;;;;5055115;28;20096;-74
2022/04/18 03:23:23;;;;;;;4.45;2.10;;;3.10;60.90;;;;;;5055204;28;20090;-74
2022/04/18 03:25:48;;;;;;;5.20;2.75;;;3.20;60.80;;;;;;5055034;28;20124;-75
2022/04/18 03:28:14;;;;;;;7.45;2.35;;;3.30;60.80;;;;;;5054141;28;20028;-74
2022/04/18 03:30:40;;;;;;;9.13;3.63;;;3.30;60.70;;;;;;5055090;28;20028;-75
2022/04/18 03:33:07;;;;;;;6.93;2.80;;;3.40;60.70;;;;;;5036791;28;20020;-75
2022/04/18 03:35:32;;;;;;;4.60;2.58;;;3.40;60.60;;;;;;5054541;28;20122;-76
2022/04/18 03:40:42;;;;;;;7.10;2.53;;;3.50;60.50;;;;;;5055000;28;20119;-75
2022/04/18 03:43:08;;;;;;;6.43;2.53;;;3.60;60.50;;;;;;5054586;28;20104;-75
2022/04/18 03:45:33;;;;;;;5.45;2.60;;;3.70;60.50;;;;;;5035873;28;20083;-76
2022/04/18 03:47:59;;;;;;;7.47;2.85;;;3.70;60.50;;;;;;5054595;28;20021;-75
2022/04/18 03:50:26;;;;;;;3.55;2.08;;;3.80;60.40;;;;;;5036712;28;20120;-74
2022/04/18 03:52:52;;;;;;;10.50;2.78;;;3.80;60.30;;;;;;5054645;28;20029;-75
2022/04/18 03:55:18;;;;;;;7.10;2.53;;;3.90;60.50;;;;;;5054804;28;20028;-77
2022/04/18 03:57:44;;;;;;;5.65;2.58;;;3.90;60.30;;;;;;5054709;28;20343;-76
2022/04/18 04:00:11;;;;;;;4.03;2.67;;;3.90;60.30;;;;;;5054841;28;20032;-76
2022/04/18 04:02:37;;;;;;;6.95;2.35;;;4.00;60.60;;;;;;5054059;28;20471;-75
2022/04/18 04:05:03;;;;;;;10.98;4.32;;;4.00;60.70;;;;;;5054917;28;20176;-78
2022/04/18 04:07:29;;;;;;;6.28;2.95;;;4.10;61.50;;;;;;5054450;28;20083;-75
2022/04/18 04:09:55;;;;;;;10.63;5.70;;;4.10;61.40;;;;;;5036261;28;20140;-75
2022/04/18 04:12:24;;;;;;;14.63;5.32;;;4.10;62.00;;;;;;5054166;28;20032;-76
2022/04/18 04:14:54;;;;;;;10.75;3.47;;;4.10;62.30;;;;;;5035146;28;20090;-75
2022/04/18 04:17:22;;;;;;;10.70;4.43;;;4.20;62.50;;;;;;5054074;28;20041;-75
2022/04/18 04:19:48;;;;;;;11.55;3.85;;;4.20;62.50;;;;;;5053328;28;20029;-77
2022/04/18 04:22:14;;;;;;;7.63;4.15;;;4.30;62.50;;;;;;5054465;28;20017;-76
2022/04/18 04:24:40;;;;;;;8.15;3.55;;;4.30;62.20;;;;;;5054577;28;20025;-76
2022/04/18 04:27:06;;;;;;;7.25;3.17;;;4.50;62.60;;;;;;5053697;28;20017;-75
2022/04/18 04:29:32;;;;;;;8.25;4.20;;;4.60;62.90;;;;;;5054014;28;20094;-76
2022/04/18 04:32:01;;;;;;;11.57;4.40;;;4.70;63.20;;;;;;5053758;28;20025;-78
2022/04/18 04:34:26;;;;;;;9.52;3.80;;;4.90;63.70;;;;;;5052298;28;20106;-75
2022/04/18 04:36:52;;;;;;;6.25;4.05;;;5.40;63.40;;;;;;5052071;28;20120;-77
2022/04/18 04:39:18;;;;;;;8.60;4.93;;;6.20;61.50;;;;;;5053896;28;20089;-75
2022/04/18 04:41:44;;;;;;;10.48;4.68;;;6.80;59.70;;;;;;5053702;28;20494;-75
2022/04/18 04:44:09;;;;;;;8.85;3.53;;;7.20;58.40;;;;;;5053502;28;20104;-76
2022/04/18 04:46:36;;;;;;;8.77;4.63;;;7.80;56.60;;;;;;5053249;28;20509;-76
2022/04/18 04:49:03;;;;;;;5.50;3.72;;;8.30;55.40;;;;;;5053567;28;20052;-76
2022/04/18 04:51:28;;;;;;;11.70;4.85;;;8.50;54.20;;;;;;5052639;28;20052;-75
2022/04/18 04:53:54;;;;;;;12.00;5.72;;;8.60;53.80;;;;;;5053694;28;20025;-76
2022/04/18 04:56:25;;;;;;;13.63;4.93;;;9.00;53.70;;;;;;5053284;28;20029;-75
2022/04/18 04:58:51;;;;;;;6.72;5.10;;;9.50;52.80;;;;;;5035429;28;20017;-75
2022/04/18 05:01:18;;;;;;;8.63;4.82;;;9.60;51.70;;;;;;5053268;28;20044;-77
2022/04/18 05:03:43;;;;;;;7.87;5.47;;;9.50;51.70;;;;;;5053032;28;20029;-74
2022/04/18 05:06:11;;;;;;;6.97;5.35;;;9.90;51.00;;;;;;5053177;28;20273;-75
2022/04/18 05:08:37;;;;;;;14.57;5.32;;;10.30;51.10;;;;;;5052587;28;20135;-75
2022/04/18 05:11:02;;;;;;;15.82;8.50;;;10.70;49.80;;;;;;5052953;28;20056;-74
2022/04/18 05:13:28;;;;;;;11.70;6.25;;;11.20;48.70;;;;;;5053095;28;20067;-76
2022/04/18 05:15:54;;;;;;;9.95;5.05;;;11.50;47.90;;;;;;5052965;28;20406;-75
2022/04/18 05:18:20;;;;;;;9.23;6.10;;;11.80;47.50;;;;;;5053050;28;20043;-76
2022/04/18 05:20:46;;;;;;;14.73;5.82;;;12.00;47.10;;;;;;5052639;28;20095;-75
2022/04/18 05:23:15;;;;;;;11.85;6.15;;;12.50;46.10;;;;;;5052076;28;20418;-76
2022/04/18 05:25:41;;;;;;;10.40;6.53;;;13.00;44.90;;;;;;5052317;28;20334;-75
2022/04/18 05:28:06;;;;;;;17.10;5.75;;;13.40;44.00;;;;;;5052634;28;20075;-75
2022/04/18 05:30:33;;;;;;;15.75;5.97;;;13.90;43.40;;;;;;5051266;28;20442;-77
2022/04/18 05:32:59;;;;;;;23.33;6.28;;;14.20;42.90;;;;;;5034537;28;20116;-77
2022/04/18 05:35:24;;;;;;;10.57;5.88;;;14.30;42.00;;;;;;5034070;28;20136;-77
2022/04/18 05:37:50;;;;;;;16.13;6.93;;;14.90;41.60;;;;;;5032830;28;20024;-75
2022/04/18 05:40:16;;;;;;;6.80;4.55;;;14.60;41.10;;;;;;5034811;28;20057;-75
2022/04/18 05:42:43;;;;;;;14.52;6.82;;;14.70;41.10;;;;;;5052210;28;20025;-77
2022/04/18 05:45:09;;;;;;;8.68;5.47;;;15.60;40.50;;;;;;5034524;28;20040;-77
2022/04/18 05:47:35;;;;;;;14.88;5.47;;;15.80;39.10;;;;;;5051958;28;20100;-77
2022/04/18 05:50:01;;;;;;;12.13;5.57;;;15.50;39.10;;;;;;5051923;28;20108;-75
2022/04/18 05:52:26;;;;;;;8.63;4.93;;;15.60;39.60;;;;;;5050925;28;20071;-76
2022/04/18 05:54:52;;;;;;;14.93;4.60;;;16.20;39.30;;;;;;5051942;28;20804;-76
2022/04/18 05:57:21;;;;;;;9.40;4.90;;;16.50;36.80;;;;;;5052072;28;20071;-76
2022/04/18 05:59:47;;;;;;;5.72;3.55;;;15.70;38.00;;;;;;5052322;28;20386;-76
2022/04/18 06:02:13;;;;;;;6.03;4.25;;;15.60;38.40;;;;;;5052468;28;20032;-79
2022/04/18 06:04:39;;;;;;;7.18;4.40;;;15.70;38.20;;;;;;5052287;28;20116;-77
2022/04/18 06:07:05;;;;;;;5.88;4.45;;;16.30;37.50;;;;;;5051980;28;20049;-77
2022/04/18 06:09:31;;;;;;;8.00;3.92;;;16.40;37.10;;;;;;5051424;28;20029;-77
2022/04/18 06:11:57;;;;;;;10.40;4.93;;;16.10;37.10;;;;;;5050988;28;20028;-78
2022/04/18 06:14:23;;;;;;;8.00;4.68;;;15.90;37.30;;;;;;5052022;28;20029;-78
2022/04/18 06:16:49;;;;;;;9.48;4.85;;;16.00;37.50;;;;;;5051714;28;20458;-77
2022/04/18 06:19:15;;;;;;;9.95;4.88;;;16.80;37.50;;;;;;5051552;28;20021;-77
2022/04/18 06:21:41;;;;;;;6.72;4.00;;;17.90;35.60;;;;;;5033296;28;20104;-77
2022/04/18 06:24:07;;;;;;;8.85;4.22;;;18.00;34.30;;;;;;5051202;28;20188;-77
2022/04/18 06:26:33;;;;;;;9.40;3.92;;;17.20;35.10;;;;;;5050345;28;20891;-76
2022/04/18 06:28:58;;;;;;;11.07;3.83;;;16.80;35.30;;;;;;5033157;28;20486;-75
2022/04/18 06:31:25;;;;;;;9.48;4.60;;;17.00;35.70;;;;;;5051310;28;20047;-77
2022/04/18 06:33:52;;;;;;;10.50;4.40;;;17.70;35.40;;;;;;5033790;28;20500;-78
2022/04/18 06:36:17;;;;;;;6.10;3.92;;;18.60;34.50;;;;;;5051735;28;20033;-80
2022/04/18 06:38:43;;;;;;;13.48;5.15;;;19.00;33.20;;;;;;5051395;28;20385;-80
2022/04/18 06:41:10;;;;;;;4.55;2.97;;;18.50;33.50;;;;;;5052529;28;20021;-83
2022/04/18 06:43:36;;;;;;;8.93;3.60;;;18.50;33.40;;;;;;5050985;28;20029;-84
2022/04/18 06:46:02;;;;;;;4.53;3.28;;;18.20;33.60;;;;;;5052272;28;20043;-84
2022/04/18 06:48:27;;;;;;;9.65;3.80;;;18.40;33.10;;;;;;5051586;28;20017;-80
2022/04/18 06:50:53;;;;;;;10.40;3.03;;;18.20;33.10;;;;;;5056006;28;20029;-81
2022/04/18 06:53:20;;;;;;;5.88;3.33;;;18.60;33.10;;;;;;5037733;28;20025;-78
2022/04/18 06:58:30;;;;;;;14.80;5.03;;;20.60;32.00;;;;;;5055714;28;20032;-79
2022/04/18 07:00:56;;;;;;;8.20;3.50;;;21.60;30.30;;;;;;5054744;28;20033;-80
2022/04/18 07:03:22;;;;;;;11.95;3.38;;;21.60;29.90;;;;;;5056038;28;20086;-81
2022/04/18 07:05:48;;;;;;;10.02;3.78;;;21.60;29.70;;;;;;5055896;28;20059;-80
2022/04/18 07:08:14;;;;;;;7.13;2.67;;;22.60;29.50;;;;;;5055349;28;20028;-80
2022/04/18 07:10:40;;;;;;;9.45;3.28;;;23.20;28.60;;;;;;5056168;28;20398;-81
2022/04/18 07:13:06;;;;;;;9.13;2.95;;;22.90;28.40;;;;;;5056789;28;20106;-80
2022/04/18 07:15:32;;;;;;;7.20;2.55;;;23.10;28.20;;;;;;5055859;28;20474;-79
2022/04/18 07:18:01;;;;;;;4.68;2.33;;;23.40;27.60;;;;;;5055555;28;20045;-79
2022/04/18 07:20:28;;;;;;;10.25;2.85;;;23.10;27.90;;;;;;5038758;28;20048;-78
2022/04/18 07:22:54;;;;;;;5.32;3.05;;;22.70;26.80;;;;;;5056138;28;20025;-81
2022/04/18 07:25:20;;;;;;;13.55;6.25;;;20.20;28.30;;;;;;5042944;28;20041;-77
2022/04/18 07:27:46;;;;;;;8.18;2.72;;;18.30;30.00;;;;;;5067005;28;20036;-81
2022/04/18 07:30:12;;;;;;;7.10;3.00;;;17.50;30.90;;;;;;5058941;28;20029;-80
2022/04/18 07:32:39;;;;;;;8.27;3.55;;;17.20;32.00;;;;;;5055340;28;20029;-79
2022/04/18 07:35:06;;;;;;;7.03;3.13;;;17.30;32.40;;;;;;5033725;28;20053;-81
2022/04/18 07:37:31;;;;;;;6.27;4.07;;;17.80;32.20;;;;;;5034082;28;20060;-80
2022/04/18 07:39:57;;;;;;;7.30;3.80;;;18.60;31.20;;;;;;5034901;28;20282;-82
2022/04/18 07:42:23;;;;;;;11.00;3.38;;;19.10;31.20;;;;;;5035066;28;20479;-80
2022/04/18 07:44:49;;;;;;;7.85;3.80;;;20.00;30.00;;;;;;5035264;28;20041;-79
2022/04/18 07:47:15;;;;;;;4.10;2.92;;;20.50;30.00;;;;;;5033318;28;20026;-80
2022/04/18 07:49:40;;;;;;;5.80;2.30;;;20.80;28.90;;;;;;5018592;28;20497;-80
2022/04/18 07:52:08;;;;;;;6.40;2.38;;;20.30;28.90;;;;;;5014810;28;20439;-79
2022/04/18 07:54:35;;;;;;;6.78;2.72;;;20.10;29.00;;;;;;5015288;28;20065;-80
2022/04/18 07:57:01;;;;;;;7.67;3.83;;;19.60;29.50;;;;;;5015187;28;20021;-80
2022/04/18 07:59:27;;;;;;;4.60;2.63;;;19.60;30.00;;;;;;5015414;28;20491;-80
2022/04/18 08:01:52;;;;;;;4.68;2.80;;;20.20;29.30;;;;;;5016916;28;20018;-81
2022/04/18 08:04:18;;;;;;;5.13;2.97;;;20.40;29.20;;;;;;5029229;28;20116;-81
2022/04/18 08:06:45;;;;;;;11.68;3.08;;;21.50;28.80;;;;;;5035324;28;20387;-81
2022/04/18 08:09:11;;;;;;;6.05;3.10;;;22.30;28.20;;;;;;5034987;28;20017;-80
2022/04/18 08:11:37;;;;;;;9.48;2.80;;;23.00;27.70;;;;;;5033892;28;20506;-81
2022/04/18 08:14:03;;;;;;;6.00;2.90;;;23.40;27.00;;;;;;5033405;28;20036;-79
2022/04/18 08:16:29;;;;;;;9.35;2.58;;;22.40;27.40;;;;;;5034838;28;20032;-82
2022/04/18 08:19:03;;;;;;;6.30;3.03;;;22.70;27.40;;;;;;5034876;28;20049;-82
2022/04/18 08:21:29;;;;;;;12.55;2.85;;;23.30;27.30;;;;;;5034417;28;20037;-80
2022/04/18 08:23:54;;;;;;;5.70;2.58;;;23.50;26.80;;;;;;5032284;28;20140;-81
2022/04/18 08:26:21;;;;;;;6.07;3.72;;;23.90;26.50;;;;;;5031949;28;20044;-81
2022/04/18 08:28:47;;;;;;;7.22;4.30;;;23.40;26.50;;;;;;5012777;28;20487;-80
2022/04/18 08:31:13;;;;;;;7.57;3.00;;;22.80;27.00;;;;;;5025356;28;20114;-80
2022/04/18 08:33:39;;;;;;;12.02;3.97;;;22.00;27.50;;;;;;5034040;28;20055;-81
2022/04/18 08:36:05;;;;;;;6.20;2.70;;;22.10;27.40;;;;;;5051854;28;20045;-82
2022/04/18 08:38:31;;;;;;;5.60;2.70;;;21.70;27.30;;;;;;5054156;28;20028;-79
2022/04/18 08:41:01;;;;;;;9.25;3.45;;;20.80;27.70;;;;;;5054160;28;20060;-81
2022/04/18 08:43:26;;;;;;;4.70;2.42;;;20.30;28.40;;;;;;5053956;28;20017;-81
2022/04/18 08:45:53;;;;;;;6.05;3.00;;;20.20;28.30;;;;;;5035101;28;20044;-79
2022/04/18 08:53:48;;;;;;;4.60;2.35;;;18.50;29.90;;;;;;5053710;28;20073;-79
2022/04/18 08:56:14;;;;;;;3.63;2.38;;;18.30;30.00;;;;;;5053601;28;20025;-80
2022/04/18 08:58:41;;;;;;;12.05;3.13;;;18.40;30.00;;;;;;5053413;28;20074;-80
2022/04/18 09:01:07;;;;;;;6.72;3.80;;;18.70;30.00;;;;;;5034643;28;20025;-80
2022/04/18 09:03:34;;;;;;;5.97;3.83;;;19.50;29.70;;;;;;5053705;28;20712;-83
2022/04/18 09:06:29;;;;;;;9.60;2.88;;;19.90;29.90;;;;;;5055129;28;20033;-80
2022/04/18 09:08:57;;;;;;;4.50;2.72;;;21.50;28.20;;;;;;5053359;28;20029;-79
2022/04/18 09:11:37;;;;;;;9.55;3.25;;;20.40;28.10;;;;;;5055199;28;20035;-77
2022/04/18 09:14:07;;;;;;;3.90;2.42;;;20.20;28.70;;;;;;5036237;28;20513;-82
2022/04/18 09:16:34;;;;;;;7.47;3.53;;;20.80;27.80;;;;;;5035072;28;20028;-81
2022/04/18 09:19:12;;;;;;;12.80;3.13;;;20.00;28.30;;;;;;5035345;28;20200;-82
2022/04/18 09:22:01;;;;;;;7.75;3.88;;;20.10;28.70;;;;;;5052826;28;20025;-80
2022/04/18 09:24:32;;;;;;;6.90;2.55;;;20.50;28.60;;;;;;5052917;28;20405;-84
2022/04/18 09:27:13;;;;;;;3.63;2.08;;;20.80;28.30;;;;;;5052619;28;20021;-81
2022/04/18 09:29:40;;;;;;;3.05;1.98;;;20.50;28.10;;;;;;5053218;28;20036;-81
2022/04/18 09:32:13;;;;;;;4.45;2.35;;;19.90;28.30;;;;;;5053873;28;20115;-83
2022/04/18 09:34:40;;;;;;;5.13;2.40;;;20.40;28.80;;;;;;5057733;28;20168;-79
2022/04/18 09:37:19;;;;;;;2.92;2.40;;;21.30;28.40;;;;;;5039671;28;20029;-81
2022/04/18 09:39:52;;;;;;;8.57;2.63;;;21.90;27.40;;;;;;5056172;28;20444;-80
2022/04/18 09:42:21;;;;;;;6.00;2.38;;;20.50;28.20;;;;;;5054555;28;20028;-81
2022/04/18 09:44:47;;;;;;;9.23;2.60;;;20.60;28.50;;;;;;5035079;28;20033;-81
2022/04/18 09:47:33;;;;;;;8.25;2.88;;;21.80;28.20;;;;;;5052915;28;20513;-80
2022/04/18 09:50:58;;;;;;;4.72;3.00;;;22.10;27.20;;;;;;5052724;28;20402;-80
2022/04/18 09:53:00;;;;;;;4.07;2.65;;;21.10;27.50;;;;;;5032208;28;20033;-79
2022/04/18 09:55:26;;;;;;;3.35;1.77;;;20.80;27.60;;;;;;5032156;28;20026;-80
2022/04/18 09:57:51;;;;;;;3.88;2.10;;;20.60;27.90;;;;;;5032291;28;20029;-80
2022/04/18 10:00:17;;;;;;;6.32;2.35;;;20.70;28.00;;;;;;5032622;28;20480;-81
2022/04/18 10:02:43;;;;;;;4.75;2.22;;;20.80;27.60;;;;;;5033652;28;20033;-79
2022/04/18 10:05:09;;;;;;;3.38;2.05;;;21.30;27.60;;;;;;5033102;28;20037;-83
2022/04/18 10:07:36;;;;;;;5.20;2.20;;;22.00;26.70;;;;;;5043306;28;20441;-80
2022/04/18 10:10:02;;;;;;;;;;;22.30;26.70;;;;;;5052790;28;20040;-81
2022/04/18 10:12:28;;;;;;;4.87;2.10;;;22.60;27.40;;;;;;5052374;28;20063;-82
2022/04/18 10:14:54;;;;;;;5.53;2.05;;;23.80;26.30;;;;;;5052283;28;20451;-82
2022/04/18 10:17:22;;;;;;;6.07;2.13;;;24.70;25.40;;;;;;5052244;28;20378;-81
2022/04/18 10:20:14;;;;;;;6.03;2.90;;;24.10;25.00;;;;;;5052327;28;20528;-81
2022/04/18 10:22:51;;;;;;;3.38;1.50;;;23.50;25.40;;;;;;5034210;28;20017;-83
2022/04/18 10:25:46;;;;;;;6.90;2.00;;;21.90;25.50;;;;;;5050645;28;20509;-81
2022/04/18 10:28:14;;;;;;;7.60;2.22;;;19.40;27.00;;;;;;5052070;28;20025;-82
2022/04/18 10:31:01;;;;;;;5.05;2.28;;;17.50;29.00;;;;;;5052088;28;20029;-81
2022/04/18 10:33:28;;;;;;;11.00;2.92;;;16.40;29.90;;;;;;5052142;28;20017;-80
2022/04/18 10:36:00;;;;;;;5.50;2.40;;;15.70;30.90;;;;;;5051504;28;20053;-82
2022/04/18 10:38:30;;;;;;;4.53;2.20;;;14.80;32.10;;;;;;5051474;28;20095;-81
2022/04/18 10:41:14;;;;;;;5.03;2.22;;;14.10;33.00;;;;;;5034004;28;20383;-80
2022/04/18 10:43:59;;;;;;;8.20;2.83;;;13.30;34.50;;;;;;5052339;28;20387;-80
2022/04/18 10:46:25;;;;;;;5.78;2.00;;;12.90;35.40;;;;;;5052856;28;20463;-80
2022/04/18 10:48:59;;;;;;;9.57;3.03;;;12.60;36.00;;;;;;5033687;28;20060;-80
2022/04/18 10:51:29;;;;;;;7.00;2.55;;;12.40;36.60;;;;;;5033473;28;20498;-81
2022/04/18 10:54:09;;;;;;;6.43;2.45;;;12.40;36.70;;;;;;5051839;28;20025;-81
2022/04/18 10:56:59;;;;;;;3.53;2.10;;;12.40;36.30;;;;;;5051405;28;20029;-81
2022/04/18 10:59:57;;;;;;;5.30;2.13;;;12.40;36.60;;;;;;5031410;28;20030;-78
2022/04/18 11:02:44;;;;;;;7.40;2.17;;;12.20;36.50;;;;;;5008713;28;20033;-80
2022/04/18 11:05:11;;;;;;;10.25;2.88;;;12.20;37.30;;;;;;5013852;28;20086;-80
2022/04/18 11:07:41;;;;;;;4.75;2.42;;;12.10;37.50;;;;;;5031375;28;20018;-79
2022/04/18 11:10:20;;;;;;;3.92;1.85;;;12.10;38.00;;;;;;5031560;28;20025;-80
2022/04/18 11:12:47;;;;;;;3.25;2.00;;;12.10;37.30;;;;;;5031839;28;20856;-80
2022/04/18 11:15:13;;;;;;;9.55;2.92;;;11.90;37.90;;;;;;5047948;28;20029;-81
2022/04/18 11:17:42;;;;;;;5.75;2.15;;;12.00;38.10;;;;;;5051333;28;20025;-80
2022/04/18 11:20:32;;;;;;;4.15;1.90;;;12.00;38.00;;;;;;5033346;28;20106;-80
2022/04/18 11:23:20;;;;;;;7.60;2.78;;;11.90;37.90;;;;;;5050949;28;20020;-80
2022/04/18 11:26:05;;;;;;;5.07;2.17;;;11.70;37.90;;;;;;5051208;28;20044;-79
2022/04/18 11:28:34;;;;;;;3.05;2.08;;;11.50;38.00;;;;;;5051076;28;20490;-80
2022/04/18 11:31:00;;;;;;;5.20;2.08;;;11.30;38.30;;;;;;5050790;28;20028;-79
2022/04/18 11:33:26;;;;;;;9.32;2.25;;;11.40;39.10;;;;;;5051248;28;20025;-81
2022/04/18 11:35:59;;;;;;;5.00;2.63;;;11.50;38.50;;;;;;5052935;28;20102;-78
2022/04/18 11:38:25;;;;;;;4.13;2.15;;;11.50;38.40;;;;;;5054722;28;20032;-80
2022/04/18 11:40:54;;;;;;;5.47;2.30;;;11.40;38.30;;;;;;5037602;28;20028;-81
2022/04/18 11:43:20;;;;;;;5.47;2.63;;;11.40;38.80;;;;;;5055186;28;20025;-81
2022/04/18 11:45:46;;;;;;;4.43;2.55;;;11.50;38.70;;;;;;5055254;28;20066;-80
2022/04/18 11:48:12;;;;;;;4.50;2.33;;;11.70;38.20;;;;;;5058559;28;20360;-81
2022/04/18 11:50:42;;;;;;;5.40;2.13;;;11.70;38.20;;;;;;5043189;28;20525;-81
2022/04/18 11:53:09;;;;;;;6.22;2.50;;;11.80;37.80;;;;;;5060697;28;20037;-78
2022/04/18 11:55:47;;;;;;;7.32;2.80;;;11.70;38.00;;;;;;5056392;28;20104;-81
2022/04/18 11:58:21;;;;;;;6.10;2.30;;;11.70;38.30;;;;;;5055665;28;20029;-78
2022/04/18 12:09:01;;;;;;;3.95;1.73;;;11.50;37.50;;;;;;5055826;28;20501;-78
2022/04/18 12:11:34;;;;;;;4.90;1.52;;;11.50;37.60;;;;;;5054979;28;20029;-80
2022/04/18 12:14:00;;;;;;;3.72;2.45;;;11.50;37.50;;;;;;5054049;28;20066;-80
2022/04/18 12:16:26;;;;;;;4.07;1.90;;;11.30;37.80;;;;;;5036432;28;20021;-80
2022/04/18 12:18:55;;;;;;;3.75;1.95;;;11.40;37.80;;;;;;5053738;28;20474;-81
2022/04/18 12:21:27;;;;;;;4.35;2.28;;;11.40;38.20;;;;;;5054259;28;20340;-80
2022/04/18 12:23:59;;;;;;;8.05;2.17;;;11.60;38.20;;;;;;5054641;28;20060;-81
2022/04/18 12:26:33;;;;;;;3.13;1.85;;;11.70;37.90;;;;;;5055007;28;20036;-82
2022/04/18 12:29:11;;;;;;;4.00;1.95;;;11.80;37.80;;;;;;5054239;28;20036;-81
2022/04/18 12:31:41;;;;;;;5.63;2.17;;;11.80;37.50;;;;;;5054345;28;20064;-78
2022/04/18 12:34:15;;;;;;;7.28;2.10;;;11.70;37.80;;;;;;5054154;28;20028;-79
2022/04/18 12:36:41;;;;;;;7.72;2.70;;;11.70;37.90;;;;;;5053434;28;20385;-80
2022/04/18 12:39:18;;;;;;;5.55;2.25;;;11.70;38.30;;;;;;5035740;28;20040;-80
2022/04/18 12:41:43;;;;;;;4.32;1.88;;;11.70;37.80;;;;;;5053743;28;20362;-80
2022/04/18 12:44:11;;;;;;;2.75;1.85;;;11.60;38.00;;;;;;5035594;28;20116;-80
2022/04/18 12:46:36;;;;;;;;;;;11.50;38.10;;;;;;5053361;28;20033;-81
2022/04/18 12:49:05;;;;;;;4.78;1.90;;;11.50;38.50;;;;;;5035651;28;19962;-79
2022/04/18 12:51:33;;;;;;;6.72;1.90;;;11.60;38.30;;;;;;5053600;28;20091;-80
2022/04/18 12:53:59;;;;;;;1.98;1.80;;;11.50;38.20;;;;;;5053046;28;20025;-79
2022/04/18 12:56:26;;;;;;;7.10;2.17;;;11.60;38.30;;;;;;5053821;28;20158;-81
2022/04/18 12:59:06;;;;;;;2.22;1.20;;;11.50;38.40;;;;;;5053748;28;20025;-81
2022/04/18 13:01:37;;;;;;;6.57;2.00;;;11.50;38.20;;;;;;5053026;28;20025;-79
2022/04/18 13:04:04;;;;;;;2.17;1.55;;;11.50;38.70;;;;;;5033298;28;20069;-80
2022/04/18 13:06:33;;;;;;;5.25;2.00;;;11.60;38.30;;;;;;5015403;28;20038;-80
2022/04/18 13:09:04;;;;;;;10.18;2.05;;;11.60;37.90;;;;;;5033095;28;20509;-80
2022/04/18 13:11:37;;;;;;;6.13;2.15;;;11.70;37.80;;;;;;5032854;28;20029;-80
2022/04/18 13:14:03;;;;;;;10.50;2.00;;;11.70;37.30;;;;;;5015792;28;20055;-82
2022/04/18 13:16:29;;;;;;;7.25;1.92;;;11.60;37.80;;;;;;5032965;28;20026;-81
2022/04/18 13:19:13;;;;;;;4.05;1.75;;;11.60;38.20;;;;;;5049020;28;20107;-77
2022/04/18 13:21:41;;;;;;;3.55;1.60;;;11.70;37.80;;;;;;5052728;28;20032;-79
2022/04/18 13:24:13;;;;;;;2.92;1.83;;;11.70;37.40;;;;;;5052921;28;20359;-80